UKDE/OZH METAR and TAF weather

Enter ICAO airport designator
Station Type Date Time Source
UKDE METAR 2021/10/22 19:00 UTC NOAA

UKDE 221900Z 22003MPS 8000 NSC 13/08 Q1015 R20/090070 NOSIG


Station Type Date Time Source
UKDE Decoded METAR 2021/10/22 19:00 UTC NOAA

Zaporizhzhia / Mokraya, Ukraine (UKDE) 47-52-02N 035-18-59E
Oct 22, 2021 - 03:00 PM EDT / 2021.10.22 1900 UTC
Wind: from the SW (220 degrees) at 7 MPH (6 KT):0
Visibility: 4 mile(s):0
Temperature: 55 F (13 C)
Dew Point: 46 F (8 C)
Relative Humidity: 71%
Pressure (altimeter): 29.97 in. Hg (1015 hPa)
ob: UKDE 221900Z 22003MPS 8000 NSC 13/08 Q1015 R20/090070 NOSIG
cycle: 19

Station Type Date Time Source
UKDE TAF 2020/06/03 15:15 UTC NOAA

TAF
AMD TAF
AMD UKDE 031510Z 0315/0524 21007MPS 9999 BKN030CB
TEMPO 0315/0318 VRB15G20MPS 0300 +TSRAGR SQ BKN007 BKN013CB

Example: see airport list